| time (UTC) | temp F | wind direction | speed MPH | gust MPH | rain 1hr in | rain 24hr in | rain mn in | humidity % | barometer mb |
| 20260509154559 | 52 | 344 | 11.0 | 16.0 | 0.00 | 0.00 | 0.00 | 44 | 1016.4 |
| 20260509153117 | 51 | 45 | 8.0 | 15.0 | 0.00 | 0.00 | 0.00 | 45 | 1016.1 |
| 20260509151600 | 50 | 13 | 6.0 | 15.0 | 0.00 | 0.00 | 0.00 | 50 | 1016.1 |
| 20260509150101 | 49 | 15 | 3.0 | 11.0 | 0.00 | 0.00 | 0.00 | 52 | 1016.1 |
| 20260509144600 | 48 | 31 | 3.0 | 10.0 | 0.00 | 0.00 | 0.00 | 55 | 1016.1 |
| 20260509143102 | 47 | 0 | 3.0 | 5.0 | 0.00 | 0.00 | 0.00 | 58 | 1016.1 |
| 20260509141601 | 46 | 0 | 0.0 | 6.0 | 0.00 | 0.00 | 0.00 | 66 | 1016.0 |
| 20260509134600 | 44 | 0 | 0.0 | 0.0 | 0.00 | 0.00 | 0.00 | 71 | 1015.7 |
| 20260509133100 | 43 | 0 | 0.0 | 1.0 | 0.00 | 0.00 | 0.00 | 72 | 1015.6 |
| 20260509131600 | 42 | 0 | 0.0 | 3.0 | 0.00 | 0.00 | 0.00 | 76 | 1015.4 |
| 20260509130108 | 41 | 221 | 2.0 | 4.0 | 0.00 | 0.00 | 0.00 | 79 | 1015.2 |
| 20260509124601 | 40 | 0 | 1.0 | 5.0 | 0.00 | 0.00 | 0.00 | 79 | 1014.8 |
| 20260509123058 | 40 | 29 | 4.0 | 7.0 | 0.00 | 0.00 | 0.00 | 80 | 1014.7 |
| 20260509121633 | 39 | 32 | 6.0 | 8.0 | 0.00 | 0.00 | 0.00 | 80 | 1014.4 |
| 20260509120100 | 39 | 24 | 7.0 | 9.0 | 0.00 | 0.00 | 0.00 | 82 | 1014.1 |
| 20260509114604 | 38 | 25 | 9.0 | 12.0 | 0.00 | 0.00 | 0.00 | 83 | 1013.9 |
| 20260509113101 | 38 | 26 | 9.0 | 11.0 | 0.00 | 0.00 | 0.00 | 83 | 1013.7 |
| 20260509111559 | 37 | 343 | 7.0 | 11.0 | 0.00 | 0.00 | 0.00 | 83 | 1013.5 |
| 20260509110107 | 39 | 19 | 9.0 | 11.0 | 0.00 | 0.00 | 0.00 | 81 | 1013.2 |
| 20260509104559 | 39 | 15 | 8.0 | 9.0 | 0.00 | 0.00 | 0.00 | 81 | 1013.1 |
| 20260509103104 | 40 | 31 | 8.0 | 11.0 | 0.00 | 0.00 | 0.00 | 81 | 1012.9 |
| 20260509101613 | 41 | 47 | 5.0 | 7.0 | 0.00 | 0.00 | 0.00 | 80 | 1012.6 |
| 20260509100057 | 41 | 36 | 3.0 | 6.0 | 0.00 | 0.00 | 0.00 | 79 | 1012.4 |
| 20260509094611 | 41 | 41 | 5.0 | 9.0 | 0.00 | 0.00 | 0.00 | 78 | 1012.1 |
| 20260509093057 | 42 | 12 | 5.0 | 9.0 | 0.00 | 0.00 | 0.00 | 78 | 1012.0 |
| 20260509091606 | 43 | 19 | 4.0 | 6.0 | 0.00 | 0.00 | 0.00 | 77 | 1011.8 |
| 20260509090144 | 42 | 0 | 0.0 | 0.0 | 0.00 | 0.00 | 0.00 | 78 | 1011.6 |
| 20260509084603 | 42 | 0 | 0.0 | 3.0 | 0.00 | 0.00 | 0.00 | 78 | 1011.3 |
| 20260509083108 | 42 | 31 | 4.0 | 8.0 | 0.00 | 0.00 | 0.00 | 79 | 1011.2 |
| 20260509081601 | 43 | 37 | 4.0 | 9.0 | 0.00 | 0.00 | 0.00 | 77 | 1010.9 |
| 20260509074601 | 46 | 44 | 10.0 | 16.0 | 0.00 | 0.00 | 0.00 | 75 | 1010.3 |
| 20260509073111 | 46 | 38 | 11.0 | 14.0 | 0.00 | 0.00 | 0.00 | 74 | 1010.3 |
| 20260509071604 | 46 | 31 | 8.0 | 10.0 | 0.00 | 0.00 | 0.00 | 73 | 1010.2 |
| 20260509070105 | 47 | 71 | 2.0 | 5.0 | 0.00 | 0.00 | 0.00 | 71 | 1009.9 |
| 20260509064605 | 48 | 76 | 4.0 | 10.0 | 0.00 | 0.00 | 0.00 | 70 | 1009.6 |
| 20260509063101 | 49 | 69 | 5.0 | 9.0 | 0.00 | 0.00 | 0.00 | 69 | 1009.5 |
| 20260509061603 | 50 | 91 | 7.0 | 10.0 | 0.00 | 0.00 | 0.00 | 66 | 1009.2 |
| 20260509060111 | 51 | 78 | 7.0 | 11.0 | 0.00 | 0.00 | 0.00 | 67 | 1009.3 |
| 20260509054616 | 52 | 92 | 11.0 | 17.0 | 0.00 | 0.00 | 0.00 | 64 | 1008.8 |
| 20260509053135 | 52 | 105 | 10.0 | 15.0 | 0.00 | 0.00 | 0.00 | 63 | 1008.7 |
| 20260509051601 | 52 | 79 | 11.0 | 17.0 | 0.00 | 0.00 | 0.00 | 63 | 1008.9 |
| 20260509050100 | 52 | 61 | 11.0 | 15.0 | 0.00 | 0.00 | 0.00 | 65 | 1008.8 |
| 20260509044656 | 53 | 71 | 12.0 | 17.0 | 0.00 | 0.00 | 0.00 | 61 | 1008.5 |
| 20260509043140 | 54 | 64 | 14.0 | 19.0 | 0.00 | 0.00 | 0.00 | 57 | 1008.2 |
| 20260509041559 | 55 | 60 | 16.0 | 22.0 | 0.00 | 0.00 | 0.00 | 53 | 1008.0 |
| 20260509040105 | 56 | 77 | 14.0 | 20.0 | 0.00 | 0.00 | 0.00 | 54 | 1007.8 |
| 20260509034601 | 56 | 56 | 12.0 | 18.0 | 0.00 | 0.00 | 0.00 | 53 | 1007.8 |
| 20260509033101 | 56 | 53 | 14.0 | 19.0 | 0.00 | 0.00 | 0.00 | 51 | 1007.8 |
| 20260509031602 | 57 | 26 | 14.0 | 21.0 | 0.00 | 0.00 | 0.00 | 50 | 1007.3 |
| 20260509030114 | 58 | 45 | 16.0 | 22.0 | 0.00 | 0.00 | 0.00 | 51 | 1007.4 |
| 20260509024602 | 58 | 38 | 18.0 | 29.0 | 0.00 | 0.00 | 0.00 | 51 | 1007.5 |
| 20260509023100 | 59 | 43 | 17.0 | 23.0 | 0.00 | 0.00 | 0.00 | 49 | 1007.1 |
| 20260509021602 | 60 | 50 | 14.0 | 30.0 | 0.00 | 0.00 | 0.00 | 45 | 1007.1 |
| 20260509020108 | 61 | 9 | 18.0 | 30.0 | 0.00 | 0.00 | 0.00 | 42 | 1006.9 |
| 20260509014558 | 63 | 43 | 29.0 | 36.0 | 0.00 | 0.00 | 0.00 | 37 | 1006.3 |
| 20260509013101 | 67 | 323 | 6.0 | 9.0 | 0.00 | 0.00 | 0.00 | 27 | 1005.8 |
| 20260509011601 | 68 | 300 | 8.0 | 14.0 | 0.00 | 0.00 | 0.00 | 26 | 1005.4 |
| 20260509010100 | 69 | 296 | 11.0 | 15.0 | 0.00 | 0.00 | 0.00 | 25 | 1005.5 |
| 20260509004603 | 69 | 274 | 12.0 | 16.0 | 0.00 | 0.00 | 0.00 | 25 | 1005.7 |
| 20260509003100 | 69 | 287 | 14.0 | 23.0 | 0.00 | 0.00 | 0.00 | 24 | 1005.9 |
| 20260509001603 | 71 | 301 | 19.0 | 28.0 | 0.00 | 0.00 | 0.00 | 23 | 1006.0 |
| 20260509000106 | 72 | 257 | 18.0 | 27.0 | 0.00 | 0.00 | 0.00 | 22 | 1005.8 |
| 20260508234558 | 71 | 267 | 16.0 | 24.0 | 0.00 | 0.00 | 0.00 | 23 | 1006.2 |
| 20260508233059 | 71 | 284 | 14.0 | 20.0 | 0.00 | 0.00 | 0.00 | 23 | 1006.3 |
| 20260508231558 | 70 | 263 | 19.0 | 27.0 | 0.00 | 0.00 | 0.00 | 23 | 1006.5 |
| 20260508230057 | 71 | 292 | 13.0 | 30.0 | 0.00 | 0.00 | 0.00 | 24 | 1006.9 |
| 20260508224647 | 71 | 290 | 11.0 | 23.0 | 0.00 | 0.00 | 0.00 | 24 | 1007.0 |
| 20260508223059 | 69 | 279 | 16.0 | 24.0 | 0.00 | 0.00 | 0.00 | 25 | 1007.3 |
| 20260508221600 | 69 | 288 | 13.0 | 29.0 | 0.00 | 0.00 | 0.00 | 25 | 1007.4 |
| 20260508220058 | 70 | 290 | 13.0 | 25.0 | 0.00 | 0.00 | 0.00 | 25 | 1007.5 |
| 20260508214601 | 71 | 282 | 18.0 | 29.0 | 0.00 | 0.00 | 0.00 | 23 | 1007.7 |
| 20260508213057 | 70 | 333 | 11.0 | 21.0 | 0.00 | 0.00 | 0.00 | 24 | 1007.8 |
| 20260508211603 | 69 | 300 | 16.0 | 28.0 | 0.00 | 0.00 | 0.00 | 24 | 1008.1 |
| 20260508210100 | 69 | 331 | 14.0 | 24.0 | 0.00 | 0.00 | 0.00 | 23 | 1008.4 |
| 20260508204601 | 69 | 330 | 18.0 | 30.0 | 0.00 | 0.00 | 0.00 | 24 | 1008.6 |
| 20260508203109 | 69 | 286 | 11.0 | 24.0 | 0.00 | 0.00 | 0.00 | 23 | 1008.8 |
| 20260508201605 | 69 | 334 | 18.0 | 27.0 | 0.00 | 0.00 | 0.00 | 23 | 1008.9 |
| 20260508200057 | 68 | 330 | 13.0 | 25.0 | 0.00 | 0.00 | 0.00 | 24 | 1009.1 |
| 20260508194600 | 68 | 334 | 17.0 | 34.0 | 0.00 | 0.00 | 0.00 | 25 | 1009.3 |
| 20260508193103 | 69 | 282 | 11.0 | 19.0 | 0.00 | 0.00 | 0.00 | 25 | 1009.5 |
| 20260508191559 | 67 | 288 | 9.0 | 23.0 | 0.00 | 0.00 | 0.00 | 27 | 1009.9 |
| 20260508190058 | 67 | 292 | 10.0 | 22.0 | 0.00 | 0.00 | 0.00 | 27 | 1010.1 |
| 20260508184601 | 66 | 315 | 12.0 | 20.0 | 0.00 | 0.00 | 0.00 | 25 | 1010.2 |
| 20260508183057 | 65 | 266 | 6.0 | 17.0 | 0.00 | 0.00 | 0.00 | 26 | 1010.3 |
| 20260508181600 | 65 | 325 | 12.0 | 18.0 | 0.00 | 0.00 | 0.00 | 24 | 1010.8 |
| 20260508180100 | 65 | 331 | 11.0 | 21.0 | 0.00 | 0.00 | 0.00 | 25 | 1010.9 |
| 20260508174602 | 65 | 281 | 4.0 | 11.0 | 0.00 | 0.00 | 0.00 | 25 | 1011.0 |
| 20260508173101 | 64 | 292 | 10.0 | 15.0 | 0.00 | 0.00 | 0.00 | 24 | 1011.4 |
| 20260508171601 | 63 | 217 | 3.0 | 19.0 | 0.00 | 0.00 | 0.00 | 25 | 1011.4 |
| 20260508170100 | 63 | 306 | 7.0 | 17.0 | 0.00 | 0.00 | 0.00 | 25 | 1011.6 |
| 20260508164601 | 63 | 331 | 11.0 | 21.0 | 0.00 | 0.00 | 0.00 | 23 | 1011.6 |
| 20260508163100 | 62 | 318 | 10.0 | 18.0 | 0.00 | 0.00 | 0.00 | 26 | 1011.7 |
| 20260508161601 | 62 | 318 | 7.0 | 13.0 | 0.00 | 0.00 | 0.00 | 26 | 1011.8 |
| 20260508160059 | 61 | 290 | 4.0 | 13.0 | 0.00 | 0.00 | 0.00 | 31 | 1011.8 |